createdAt,value
2022-10-06T00:00:35.460Z,2.83
2022-10-06T00:03:02.640Z,2.50
2022-10-06T00:05:29.655Z,2.40
2022-10-06T00:07:56.185Z,2.72
2022-10-06T00:10:23.135Z,2.60
2022-10-06T00:12:51.617Z,2.42
2022-10-06T00:15:27.077Z,2.50
2022-10-06T00:17:53.711Z,2.50
2022-10-06T00:20:21.211Z,2.53
2022-10-06T00:22:50.136Z,2.40
2022-10-06T00:25:22.338Z,2.70
2022-10-06T00:27:51.071Z,2.38
2022-10-06T00:30:20.726Z,2.38
2022-10-06T00:32:59.040Z,2.22
2022-10-06T00:35:26.935Z,2.30
2022-10-06T00:37:53.856Z,2.50
2022-10-06T00:40:21.385Z,2.30
2022-10-06T00:42:56.846Z,2.50
2022-10-06T00:45:43.084Z,2.72
2022-10-06T00:48:39.040Z,2.03
2022-10-06T00:51:05.945Z,2.30
2022-10-06T00:53:33.018Z,2.30
2022-10-06T00:56:00.079Z,2.50
2022-10-06T00:58:27.085Z,2.50
2022-10-06T01:00:55.138Z,2.17
2022-10-06T01:03:27.259Z,2.22
2022-10-06T01:05:55.514Z,2.67
2022-10-06T01:08:22.962Z,2.50
2022-10-06T01:10:49.611Z,2.47
2022-10-06T01:13:17.598Z,2.45
2022-10-06T01:16:30.336Z,2.25
2022-10-06T01:18:56.985Z,2.35
2022-10-06T01:21:51.221Z,2.17
2022-10-06T01:24:18.760Z,2.40
2022-10-06T01:26:50.090Z,2.30
2022-10-06T01:29:17.373Z,2.30
2022-10-06T01:31:44.068Z,2.30
2022-10-06T01:34:10.878Z,2.50
2022-10-06T01:36:40.363Z,2.42
2022-10-06T01:39:06.930Z,2.60
2022-10-06T01:41:34.414Z,2.67
2022-10-06T01:44:01.084Z,2.35
2022-10-06T01:46:30.048Z,2.60
2022-10-06T01:48:56.913Z,2.50
2022-10-06T01:51:23.460Z,2.63
2022-10-06T01:53:50.078Z,2.50
2022-10-06T01:56:16.612Z,2.53
2022-10-06T01:58:43.294Z,2.60
2022-10-06T02:01:10.449Z,2.50
2022-10-06T02:03:39.256Z,2.70
2022-10-06T02:06:06.584Z,3.05
2022-10-06T02:08:33.871Z,3.03
2022-10-06T02:11:09.375Z,3.75
2022-10-06T02:13:36.704Z,3.58
2022-10-06T02:16:03.998Z,3.15
2022-10-06T02:18:30.910Z,2.70
2022-10-06T02:20:57.836Z,2.80
2022-10-06T02:23:24.315Z,2.72
2022-10-06T02:25:58.965Z,2.90
2022-10-06T02:28:26.631Z,2.47
2022-10-06T02:30:53.523Z,2.65
2022-10-06T02:33:20.096Z,2.60
2022-10-06T02:35:47.206Z,2.78
2022-10-06T02:38:13.745Z,2.63
2022-10-06T02:40:40.270Z,2.67
2022-10-06T02:43:06.853Z,3.17
2022-10-06T02:45:33.382Z,3.30
2022-10-06T02:47:59.898Z,2.83
2022-10-06T02:50:26.436Z,3.10
2022-10-06T02:52:52.922Z,2.72
2022-10-06T02:55:19.442Z,3.00
2022-10-06T02:57:46.107Z,2.63
2022-10-06T03:00:13.188Z,2.70
2022-10-06T03:02:39.954Z,2.60
2022-10-06T03:05:06.936Z,2.55
2022-10-06T03:07:33.454Z,3.08
2022-10-06T03:10:00.087Z,2.60
2022-10-06T03:12:26.841Z,2.30
2022-10-06T03:14:53.355Z,2.28
2022-10-06T03:17:19.933Z,2.50
2022-10-06T03:19:46.416Z,2.40
2022-10-06T03:22:12.925Z,2.47
2022-10-06T03:24:39.457Z,2.40
2022-10-06T03:27:05.954Z,2.50
2022-10-06T03:29:32.492Z,2.53
2022-10-06T03:31:59.128Z,2.40
2022-10-06T03:34:25.837Z,3.45
2022-10-06T03:36:52.355Z,2.33
2022-10-06T03:39:19.002Z,2.53
2022-10-06T03:41:45.676Z,2.60
2022-10-06T03:44:12.167Z,3.38
2022-10-06T03:46:38.850Z,2.30
2022-10-06T03:49:05.538Z,2.22
2022-10-06T03:51:37.841Z,2.05
2022-10-06T03:54:05.309Z,2.33
2022-10-06T03:56:37.988Z,2.28
2022-10-06T03:59:10.347Z,2.50
2022-10-06T04:01:38.406Z,2.42
2022-10-06T04:04:06.063Z,2.20
2022-10-06T04:06:35.515Z,2.60
2022-10-06T04:09:03.043Z,2.78
2022-10-06T04:11:32.623Z,2.38
2022-10-06T04:14:04.748Z,2.33
2022-10-06T04:16:34.217Z,2.38
2022-10-06T04:19:03.869Z,2.25
2022-10-06T04:21:32.336Z,2.03
2022-10-06T04:24:00.061Z,2.50
2022-10-06T04:26:30.731Z,1.98
2022-10-06T04:28:57.774Z,1.92
2022-10-06T04:31:31.019Z,2.30
2022-10-06T04:33:59.807Z,2.10
2022-10-06T04:36:28.435Z,2.47
2022-10-06T04:38:58.898Z,2.67
2022-10-06T04:41:36.964Z,2.40
2022-10-06T04:44:04.659Z,2.67
2022-10-06T04:46:47.919Z,2.60
2022-10-06T04:49:19.490Z,2.85
2022-10-06T04:51:48.342Z,2.67
2022-10-06T04:54:14.867Z,2.60
2022-10-06T04:56:41.448Z,2.50
2022-10-06T04:59:08.081Z,2.45
2022-10-06T05:01:39.260Z,2.60
2022-10-06T05:04:06.444Z,3.13
2022-10-06T05:06:38.712Z,2.47
2022-10-06T05:09:10.940Z,2.20
2022-10-06T05:11:38.160Z,2.33
2022-10-06T05:14:05.698Z,2.90
2022-10-06T05:16:32.462Z,2.63
2022-10-06T05:18:59.256Z,2.53
2022-10-06T05:21:28.674Z,2.53
2022-10-06T05:23:55.371Z,2.90
2022-10-06T05:26:24.121Z,2.53
2022-10-06T05:28:51.127Z,2.42
2022-10-06T05:31:21.032Z,2.72
2022-10-06T05:33:48.060Z,2.58
2022-10-06T05:36:19.671Z,2.60
2022-10-06T05:38:47.223Z,2.30
2022-10-06T05:41:15.078Z,2.53
2022-10-06T05:43:42.406Z,2.60
2022-10-06T05:46:17.554Z,2.42
2022-10-06T05:48:49.251Z,2.55
2022-10-06T05:51:17.165Z,2.83
2022-10-06T05:53:44.511Z,2.92
2022-10-06T05:56:19.448Z,2.60
2022-10-06T05:58:48.511Z,3.00
2022-10-06T06:01:21.642Z,2.78
2022-10-06T06:03:50.882Z,3.47
2022-10-06T06:06:18.801Z,3.15
2022-10-06T06:08:46.245Z,2.78
2022-10-06T06:11:12.959Z,3.30
2022-10-06T06:13:39.604Z,3.70
2022-10-06T06:16:08.071Z,3.17
2022-10-06T06:18:37.036Z,3.10
2022-10-06T06:21:06.638Z,3.10
2022-10-06T06:23:36.348Z,3.20
2022-10-06T06:26:11.381Z,3.00
2022-10-06T06:28:38.456Z,3.53
2022-10-06T06:31:19.695Z,2.92
2022-10-06T06:33:47.644Z,2.90
2022-10-06T06:36:20.256Z,3.08
2022-10-06T06:38:51.988Z,2.70
2022-10-06T06:41:19.993Z,3.60
2022-10-06T06:43:46.741Z,3.60
2022-10-06T06:46:15.220Z,2.65
2022-10-06T06:48:42.173Z,3.15
2022-10-06T06:51:11.545Z,3.00
2022-10-06T06:53:39.371Z,3.58
2022-10-06T06:56:08.324Z,2.88
2022-10-06T06:58:37.997Z,2.78
2022-10-06T07:01:14.177Z,3.05
2022-10-06T07:03:57.123Z,3.17
2022-10-06T07:08:56.011Z,2.90
2022-10-06T07:11:29.432Z,2.60
2022-10-06T07:14:01.459Z,2.72
2022-10-06T07:16:48.106Z,2.60
2022-10-06T07:19:35.074Z,2.40
2022-10-06T07:22:26.395Z,2.58
2022-10-06T07:25:07.709Z,3.10
2022-10-06T07:27:56.471Z,2.90
2022-10-06T07:30:28.196Z,2.85
2022-10-06T07:32:55.237Z,2.97
2022-10-06T07:35:22.954Z,3.10
2022-10-06T07:37:53.383Z,2.83
2022-10-06T07:40:20.219Z,3.20
2022-10-06T07:42:52.001Z,2.40
2022-10-06T07:45:45.086Z,2.60
2022-10-06T07:48:14.632Z,2.78
2022-10-06T07:50:44.354Z,2.85
2022-10-06T07:53:11.388Z,3.00
2022-10-06T07:55:40.065Z,2.35
2022-10-06T07:58:13.994Z,2.40
2022-10-06T08:00:41.694Z,2.90
2022-10-06T08:03:09.111Z,2.13
2022-10-06T08:05:36.346Z,2.17
2022-10-06T08:08:02.850Z,2.80
2022-10-06T08:10:29.288Z,2.00
2022-10-06T08:12:55.884Z,2.20
2022-10-06T08:15:22.413Z,2.20
2022-10-06T08:17:48.949Z,2.35
2022-10-06T08:20:17.256Z,2.63
2022-10-06T08:22:44.006Z,2.05
2022-10-06T08:25:11.079Z,2.63
2022-10-06T08:27:38.346Z,2.20
2022-10-06T08:30:07.214Z,2.22
2022-10-06T08:32:34.229Z,2.65
2022-10-06T08:35:00.996Z,2.80
2022-10-06T08:37:27.807Z,2.53
2022-10-06T08:39:54.999Z,2.30
2022-10-06T08:42:42.570Z,2.50
2022-10-06T08:45:21.516Z,2.63
2022-10-06T08:47:52.619Z,2.55
2022-10-06T08:50:21.357Z,2.65
2022-10-06T08:53:05.996Z,2.50
2022-10-06T08:55:57.782Z,2.38
2022-10-06T08:58:36.908Z,2.20
2022-10-06T09:01:19.943Z,2.17
2022-10-06T09:06:45.361Z,2.35
2022-10-06T09:09:30.928Z,2.83
2022-10-06T09:12:14.827Z,3.00
2022-10-06T09:14:54.476Z,2.85
2022-10-06T09:17:27.583Z,2.80
2022-10-06T09:20:01.534Z,3.00
2022-10-06T09:22:31.736Z,2.80
2022-10-06T09:25:14.848Z,2.95
2022-10-06T09:30:12.403Z,2.75
2022-10-06T09:32:45.067Z,2.75
2022-10-06T09:35:19.378Z,3.85
2022-10-06T09:37:57.160Z,2.90
2022-10-06T09:40:48.723Z,2.70
2022-10-06T09:43:25.794Z,2.80
2022-10-06T09:45:54.774Z,2.72
2022-10-06T09:48:25.122Z,2.50
2022-10-06T09:53:39.514Z,2.90
2022-10-06T09:56:20.303Z,2.90
2022-10-06T09:58:59.033Z,3.00
2022-10-06T10:01:28.743Z,2.58
2022-10-06T10:04:19.594Z,2.42
2022-10-06T10:06:47.943Z,3.20
2022-10-06T10:09:22.123Z,2.80
2022-10-06T10:12:26.740Z,2.90
2022-10-06T10:15:19.201Z,2.35
2022-10-06T10:18:04.453Z,2.60
2022-10-06T10:20:34.447Z,2.42
2022-10-06T10:23:28.629Z,2.20
2022-10-06T10:26:04.519Z,2.55
2022-10-06T10:28:52.311Z,2.95
2022-10-06T10:31:24.126Z,2.58
2022-10-06T10:34:20.226Z,2.55
2022-10-06T10:37:14.077Z,2.92
2022-10-06T10:40:02.159Z,2.60
2022-10-06T10:42:37.285Z,2.60
2022-10-06T10:45:11.180Z,2.40
2022-10-06T10:47:39.526Z,2.35
2022-10-06T10:50:34.031Z,2.67
2022-10-06T10:53:42.937Z,2.30
2022-10-06T10:56:12.131Z,2.22
2022-10-06T10:58:47.684Z,2.47
2022-10-06T11:01:14.237Z,2.42
2022-10-06T11:03:41.170Z,3.00
2022-10-06T11:06:14.598Z,2.22
2022-10-06T11:08:49.603Z,2.40
2022-10-06T11:12:00.942Z,2.63
2022-10-06T11:14:50.572Z,2.33
2022-10-06T11:17:45.307Z,2.42
2022-10-06T11:20:30.574Z,2.30
2022-10-06T11:23:11.922Z,2.50
2022-10-06T11:26:03.900Z,2.70
2022-10-06T11:28:49.824Z,2.55
2022-10-06T11:31:33.430Z,2.25
2022-10-06T11:34:04.456Z,2.95
2022-10-06T11:36:47.206Z,2.83
2022-10-06T11:39:51.222Z,2.53
2022-10-06T11:42:50.127Z,2.80
2022-10-06T11:45:22.063Z,2.67
2022-10-06T11:48:01.837Z,2.35
2022-10-06T11:50:40.290Z,2.35
2022-10-06T11:53:26.312Z,2.33
2022-10-06T11:56:17.912Z,2.53
2022-10-06T11:58:50.689Z,2.10
2022-10-06T12:01:36.363Z,3.03
2022-10-06T12:04:09.034Z,2.53
2022-10-06T12:06:47.543Z,2.35
2022-10-06T12:09:26.273Z,1.90
2022-10-06T12:12:03.372Z,2.20
2022-10-06T12:17:30.684Z,2.70
2022-10-06T12:20:34.918Z,2.10
2022-10-06T12:23:17.167Z,2.90
2022-10-06T12:25:58.839Z,2.45
2022-10-06T12:28:47.379Z,2.28
2022-10-06T12:31:51.268Z,2.20
2022-10-06T12:34:39.720Z,2.00
2022-10-06T12:37:43.507Z,2.25
2022-10-06T12:40:40.991Z,2.03
2022-10-06T12:43:20.549Z,1.90
2022-10-06T12:45:48.668Z,2.50
2022-10-06T12:48:23.153Z,2.22
2022-10-06T12:50:54.781Z,2.20
2022-10-06T12:53:28.337Z,2.25
2022-10-06T12:56:02.152Z,2.20
2022-10-06T12:58:32.613Z,2.15
2022-10-06T13:03:27.357Z,2.15
2022-10-06T13:06:01.166Z,2.00
2022-10-06T13:08:30.453Z,2.08
2022-10-06T13:11:15.618Z,1.80
2022-10-06T13:14:06.877Z,2.00
2022-10-06T13:16:39.595Z,2.05
2022-10-06T13:19:15.409Z,1.85
2022-10-06T13:21:42.023Z,2.10
2022-10-06T13:24:12.979Z,1.85
2022-10-06T13:26:40.806Z,1.60
2022-10-06T13:29:22.299Z,2.20
2022-10-06T13:31:55.952Z,2.10
2022-10-06T13:34:42.039Z,1.88
2022-10-06T13:37:14.444Z,2.03
2022-10-06T13:39:41.101Z,1.95
2022-10-06T13:42:17.796Z,2.10
2022-10-06T13:47:22.640Z,1.98
2022-10-06T13:50:06.391Z,2.00
2022-10-06T13:52:39.192Z,2.05
2022-10-06T13:55:19.075Z,1.58
2022-10-06T13:57:50.763Z,2.10
2022-10-06T14:00:20.832Z,1.98
2022-10-06T14:02:50.796Z,2.10
2022-10-06T14:05:38.176Z,2.13
2022-10-06T14:08:10.451Z,2.30
2022-10-06T14:10:55.819Z,1.92
2022-10-06T14:13:51.188Z,1.85
2022-10-06T14:19:30.076Z,1.83
2022-10-06T14:21:56.774Z,2.03
2022-10-06T14:24:26.949Z,1.85
2022-10-06T14:26:55.004Z,2.50
2022-10-06T14:29:22.396Z,1.80
2022-10-06T14:31:49.371Z,2.00
2022-10-06T14:34:18.359Z,1.63
2022-10-06T14:36:47.771Z,1.98
2022-10-06T14:39:15.665Z,1.85
2022-10-06T14:41:42.568Z,1.80
2022-10-06T14:44:11.621Z,2.10
2022-10-06T14:46:39.611Z,1.90
2022-10-06T14:49:07.661Z,1.90
2022-10-06T14:51:37.108Z,1.80
2022-10-06T14:54:05.182Z,1.50
2022-10-06T14:56:33.610Z,2.00
2022-10-06T14:59:05.619Z,1.80
2022-10-06T15:01:37.701Z,1.75
2022-10-06T15:04:09.723Z,1.75
2022-10-06T15:06:54.603Z,1.80
2022-10-06T15:09:21.363Z,1.60
2022-10-06T15:11:48.022Z,1.60
2022-10-06T15:14:14.508Z,1.67
2022-10-06T15:16:42.530Z,1.60
2022-10-06T15:19:12.020Z,1.63
2022-10-06T15:21:40.203Z,1.75
2022-10-06T15:24:10.907Z,1.95
2022-10-06T15:26:55.846Z,1.40
2022-10-06T15:29:22.457Z,1.55
2022-10-06T15:31:54.743Z,1.52
2022-10-06T15:34:25.719Z,1.50
2022-10-06T15:36:53.452Z,2.35
2022-10-06T15:39:21.959Z,1.23
2022-10-06T15:41:48.749Z,1.67
2022-10-06T15:44:16.047Z,1.67
2022-10-06T15:46:51.060Z,1.30
2022-10-06T15:49:25.523Z,1.50
2022-10-06T15:51:56.875Z,1.38
2022-10-06T15:54:25.974Z,1.60
2022-10-06T15:57:00.322Z,1.60
2022-10-06T15:59:28.797Z,1.60
2022-10-06T16:01:57.832Z,1.35
2022-10-06T16:04:56.397Z,1.45
2022-10-06T16:07:23.050Z,1.58
2022-10-06T16:09:51.022Z,1.60
2022-10-06T16:12:22.754Z,1.40
2022-10-06T16:14:49.417Z,1.88
2022-10-06T16:17:16.709Z,2.10
2022-10-06T16:19:43.631Z,1.50
2022-10-06T16:22:12.579Z,1.50
2022-10-06T16:24:39.131Z,1.23
2022-10-06T16:27:06.302Z,1.30
2022-10-06T16:29:32.959Z,1.20
2022-10-06T16:31:59.479Z,1.65
2022-10-06T16:34:26.572Z,1.33
2022-10-06T16:36:53.098Z,1.60
2022-10-06T16:39:23.423Z,1.50
2022-10-06T16:41:51.047Z,1.38
2022-10-06T16:44:18.191Z,1.58
2022-10-06T16:46:45.248Z,1.52
2022-10-06T16:49:12.129Z,1.50
2022-10-06T16:51:43.495Z,1.08
2022-10-06T16:54:12.468Z,1.20
2022-10-06T16:56:39.405Z,1.40
2022-10-06T16:59:11.596Z,1.65
2022-10-06T17:01:38.627Z,1.30
2022-10-06T17:04:17.002Z,1.35
2022-10-06T17:06:49.003Z,1.70
2022-10-06T17:09:20.581Z,2.17
2022-10-06T17:11:58.629Z,1.40
2022-10-06T17:14:26.266Z,1.67
2022-10-06T17:16:53.965Z,1.70
2022-10-06T17:19:22.647Z,1.20
2022-10-06T17:21:54.078Z,1.63
2022-10-06T17:24:25.672Z,1.40
2022-10-06T17:26:52.863Z,1.20
2022-10-06T17:29:21.830Z,1.13
2022-10-06T17:31:50.853Z,2.08
2022-10-06T17:34:21.852Z,1.50
2022-10-06T17:36:51.853Z,1.50
2022-10-06T17:39:21.434Z,1.20
2022-10-06T17:41:50.277Z,1.45
2022-10-06T17:44:22.708Z,1.80
2022-10-06T17:46:51.957Z,2.08
2022-10-06T17:49:20.763Z,1.70
2022-10-06T17:51:48.209Z,1.23
2022-10-06T17:54:18.124Z,1.20
2022-10-06T17:56:46.103Z,1.35
2022-10-06T17:59:15.663Z,1.67
2022-10-06T18:01:44.427Z,1.48
2022-10-06T18:04:15.576Z,1.40
2022-10-06T18:06:43.629Z,1.30
2022-10-06T18:09:10.528Z,1.55
2022-10-06T18:11:41.875Z,1.40
2022-10-06T18:14:16.797Z,1.75
2022-10-06T18:17:00.852Z,1.40
2022-10-06T18:19:32.935Z,1.25
2022-10-06T18:22:04.949Z,1.38
2022-10-06T18:24:32.326Z,1.80
2022-10-06T18:27:00.620Z,2.13
2022-10-06T18:29:37.885Z,3.20
2022-10-06T18:32:53.416Z,1.23
2022-10-06T18:37:39.709Z,1.10
2022-10-06T18:40:08.922Z,1.30
2022-10-06T18:42:35.938Z,1.00
2022-10-06T18:45:21.717Z,1.35
2022-10-06T18:48:06.833Z,1.38
2022-10-06T18:50:34.394Z,1.17
2022-10-06T18:53:01.662Z,1.30
2022-10-06T18:55:29.810Z,1.30
2022-10-06T18:57:56.570Z,1.08
2022-10-06T19:00:25.886Z,1.40
2022-10-06T19:02:52.410Z,1.20
2022-10-06T19:05:19.257Z,1.05
2022-10-06T19:07:46.182Z,1.05
2022-10-06T19:10:12.840Z,0.90
2022-10-06T19:12:39.317Z,1.20
2022-10-06T19:15:06.160Z,1.00
2022-10-06T19:17:32.649Z,1.05
2022-10-06T19:19:59.142Z,1.65
2022-10-06T19:22:25.655Z,1.38
2022-10-06T19:24:52.458Z,0.90
2022-10-06T19:27:24.370Z,1.30
2022-10-06T19:29:54.522Z,0.85
2022-10-06T19:32:26.796Z,0.93
2022-10-06T19:34:57.885Z,1.42
2022-10-06T19:37:27.033Z,1.02
2022-10-06T19:39:53.751Z,1.10
2022-10-06T19:42:39.088Z,1.13
2022-10-06T19:45:06.839Z,1.00
2022-10-06T19:47:33.776Z,1.33
2022-10-06T19:50:04.820Z,1.45
2022-10-06T19:52:34.350Z,1.40
2022-10-06T19:55:00.973Z,2.10
2022-10-06T19:57:29.250Z,1.73
2022-10-06T19:59:55.890Z,1.50
2022-10-06T20:02:22.862Z,1.45
2022-10-06T20:04:50.464Z,1.48
2022-10-06T20:07:17.286Z,1.30
2022-10-06T20:09:44.185Z,1.48
2022-10-06T20:12:10.738Z,1.70
2022-10-06T20:14:37.421Z,1.90
2022-10-06T20:17:04.053Z,1.52
2022-10-06T20:19:31.054Z,1.55
2022-10-06T20:21:58.008Z,1.58
2022-10-06T20:24:24.859Z,1.50
2022-10-06T20:26:52.842Z,1.42
2022-10-06T20:29:23.097Z,1.50
2022-10-06T20:31:52.436Z,2.38
2022-10-06T20:34:22.071Z,1.73
2022-10-06T20:36:54.572Z,1.58
2022-10-06T20:39:41.690Z,1.90
2022-10-06T20:42:14.559Z,2.00
2022-10-06T20:44:42.552Z,1.63
2022-10-06T20:47:10.565Z,1.80
2022-10-06T20:49:37.617Z,1.60
2022-10-06T20:52:05.128Z,1.85
2022-10-06T20:54:35.126Z,2.10
2022-10-06T20:57:04.681Z,1.75
2022-10-06T20:59:32.278Z,2.17
2022-10-06T21:02:02.067Z,1.75
2022-10-06T21:04:29.319Z,1.70
2022-10-06T21:06:56.289Z,1.83
2022-10-06T21:09:24.555Z,1.73
2022-10-06T21:11:51.305Z,1.80
2022-10-06T21:14:18.446Z,1.83
2022-10-06T21:16:47.377Z,2.00
2022-10-06T21:19:19.422Z,1.80
2022-10-06T21:21:51.951Z,1.70
2022-10-06T21:24:19.185Z,1.70
2022-10-06T21:26:46.211Z,2.03
2022-10-06T21:29:15.684Z,1.85
2022-10-06T21:31:43.763Z,1.77
2022-10-06T21:34:10.688Z,1.70
2022-10-06T21:36:37.807Z,1.67
2022-10-06T21:39:05.932Z,1.70
2022-10-06T21:41:40.309Z,1.85
2022-10-06T21:44:10.686Z,1.73
2022-10-06T21:46:41.813Z,1.48
2022-10-06T21:49:13.747Z,1.40
2022-10-06T21:51:42.470Z,1.88
2022-10-06T21:54:11.986Z,1.63
2022-10-06T21:56:39.285Z,1.75
2022-10-06T21:59:06.603Z,1.63
2022-10-06T22:01:38.613Z,1.80
2022-10-06T22:04:06.310Z,1.50
2022-10-06T22:06:35.297Z,1.65
2022-10-06T22:09:02.652Z,1.38
2022-10-06T22:11:31.744Z,1.80
2022-10-06T22:14:01.484Z,1.65
2022-10-06T22:16:30.441Z,1.77
2022-10-06T22:18:57.724Z,1.60
2022-10-06T22:21:30.694Z,1.50
2022-10-06T22:24:07.960Z,1.50
2022-10-06T22:26:37.669Z,1.50
2022-10-06T22:29:06.857Z,1.40
2022-10-06T22:31:34.326Z,1.52
2022-10-06T22:34:04.890Z,1.88
2022-10-06T22:36:32.014Z,1.40
2022-10-06T22:38:59.322Z,1.60
2022-10-06T22:41:26.729Z,1.52
2022-10-06T22:43:57.796Z,1.95
2022-10-06T22:46:25.463Z,1.33
2022-10-06T22:48:52.684Z,1.10
2022-10-06T22:51:19.635Z,1.42
2022-10-06T22:53:46.462Z,1.52
2022-10-06T22:56:13.231Z,1.58
2022-10-06T22:58:39.830Z,1.60
2022-10-06T23:01:15.108Z,1.33
2022-10-06T23:03:42.087Z,1.45
2022-10-06T23:06:11.975Z,1.40
2022-10-06T23:08:38.927Z,1.58
2022-10-06T23:11:11.998Z,1.50
2022-10-06T23:13:38.989Z,1.48
2022-10-06T23:16:08.789Z,1.40
2022-10-06T23:23:41.407Z,1.60
2022-10-06T23:26:10.712Z,1.85
2022-10-06T23:28:37.843Z,1.40
2022-10-06T23:31:06.163Z,2.15
2022-10-06T23:33:33.545Z,1.52
2022-10-06T23:36:12.110Z,1.60
2022-10-06T23:38:39.026Z,1.77
2022-10-06T23:41:06.834Z,1.67
2022-10-06T23:43:34.117Z,1.48
2022-10-06T23:46:01.692Z,1.73
2022-10-06T23:48:28.736Z,1.63
2022-10-06T23:51:00.963Z,1.83
2022-10-06T23:53:28.728Z,1.85
2022-10-06T23:55:55.341Z,1.80
2022-10-06T23:58:22.783Z,1.85
